La rose des vents
Donnes mto: Semaine 10/12/07 - 16/12/07 (S 50)
Date Horaire Temp. E. Hum. E. P.atmo. Pluie Vent 1mn Direction Ensoleilleme Ev.Tr. Solaire P. de rose Temp au vent Rafales
10/12/2007 00:00 9,2 C 59 % 1000,4 hPa 0,0 l/m 26,5 km/h (4 Bft) O-SO 0,00 h 0,102 mm 0 W/m 1,5 C 5,8 C 34,9 km/h (5 Bft)
10/12/2007 01:00 9,3 C 60 % 999,6 hPa 0,0 l/m 26,8 km/h (4 Bft) O-SO 0,00 h 0,127 mm 0 W/m 1,8 C 5,9 C 35,6 km/h (5 Bft)
10/12/2007 02:00 9,1 C 62 % 999,2 hPa 0,0 l/m 31,3 km/h (5 Bft) SO 0,00 h 0,127 mm 0 W/m 2,1 C 5,3 C 39,6 km/h (6 Bft)
10/12/2007 03:00 9,3 C 62 % 998,7 hPa 0,0 l/m 34,4 km/h (5 Bft) SO 0,00 h 0,127 mm 0 W/m 2,4 C 5,4 C 42,8 km/h (6 Bft)
10/12/2007 04:00 9,2 C 62 % 998,6 hPa 0,0 l/m 29,1 km/h (5 Bft) O-SO 0,00 h 0,127 mm 0 W/m 2,3 C 5,6 C 38,2 km/h (5 Bft)
10/12/2007 05:00 9,8 C 56 % 998,7 hPa 0,0 l/m 27,1 km/h (4 Bft) O-SO 0,00 h 0,127 mm 0 W/m 1,4 C 6,5 C 35,8 km/h (5 Bft)
10/12/2007 06:00 9,9 C 53 % 999,1 hPa 0,0 l/m 20,0 km/h (4 Bft) O-SO 0,00 h 0,127 mm 0 W/m 0,9 C 8,1 C 26,9 km/h (4 Bft)
10/12/2007 07:00 10,3 C 50 % 999,6 hPa 0,0 l/m 12,0 km/h (2 Bft) SO 0,00 h 0,102 mm 8 W/m 0,3 C 9,8 C 17,2 km/h (3 Bft)
10/12/2007 08:00 10,7 C 50 % 999,9 hPa 0,0 l/m 20,2 km/h (4 Bft) SO 0,63 h 0,076 mm 63 W/m 0,6 C 10,7 C 26,7 km/h (4 Bft)
10/12/2007 09:00 11,8 C 49 % 1000,4 hPa 0,0 l/m 20,3 km/h (4 Bft) SO 0,90 h 0,152 mm 206 W/m 1,3 C 11,8 C 26,4 km/h (4 Bft)
10/12/2007 10:00 14,0 C 42 % 1000,4 hPa 0,0 l/m 20,8 km/h (4 Bft) O-SO 1,00 h 0,229 mm 383 W/m 1,2 C 14,0 C 29,1 km/h (5 Bft)
10/12/2007 11:00 14,8 C 34 % 999,9 hPa 0,0 l/m 16,8 km/h (3 Bft) O-NO 0,87 h 0,356 mm 324 W/m -1,1 C 14,8 C 25,8 km/h (4 Bft)
10/12/2007 12:00 15,0 C 36 % 1000,1 hPa 0,0 l/m 13,1 km/h (3 Bft) O-NO 0,98 h 0,305 mm 334 W/m -0,2 C 15,0 C 20,6 km/h (4 Bft)
10/12/2007 13:00 13,7 C 60 % 1000,9 hPa 0,0 l/m 7,4 km/h (2 Bft) E 1,00 h 0,279 mm 367 W/m 6,1 C 13,7 C 12,5 km/h (3 Bft)
10/12/2007 14:00 13,6 C 65 % 1001,6 hPa 0,0 l/m 6,1 km/h (2 Bft) E 0,65 h 0,229 mm 265 W/m 7,2 C 13,6 C 9,3 km/h (2 Bft)
10/12/2007 15:00 12,9 C 51 % 1001,8 hPa 0,0 l/m 14,5 km/h (3 Bft) SO 0,00 h 0,152 mm 72 W/m 2,7 C 12,9 C 19,5 km/h (3 Bft)
10/12/2007 16:00 13,4 C 38 % 1002,1 hPa 0,0 l/m 13,9 km/h (3 Bft) O-NO 0,38 h 0,127 mm 29 W/m -0,6 C 13,4 C 20,7 km/h (4 Bft)
10/12/2007 17:00 10,9 C 69 % 1002,5 hPa 0,0 l/m 4,5 km/h (1 Bft) E-NE 0,00 h 0,127 mm 6 W/m 5,5 C 10,9 C 6,7 km/h (2 Bft)
10/12/2007 18:00 9,5 C 78 % 1003,2 hPa 0,0 l/m 2,1 km/h (1 Bft) E 0,00 h 0,025 mm 0 W/m 5,9 C 9,4 C 3,7 km/h (1 Bft)
10/12/2007 19:00 9,3 C 82 % 1003,8 hPa 0,0 l/m 1,4 km/h (1 Bft) NO 0,00 h 0,025 mm 0 W/m 6,4 C 9,3 C 2,3 km/h (1 Bft)
10/12/2007 20:00 9,3 C 82 % 1004,1 hPa 0,0 l/m 1,3 km/h (1 Bft) NO 0,00 h 0,025 mm 0 W/m 6,4 C 9,3 C 2,7 km/h (1 Bft)
10/12/2007 21:00 9,2 C 83 % 1004,2 hPa 0,0 l/m 0,6 km/h (0 Bft) NO 0,00 h 0,025 mm 0 W/m 6,4 C 9,2 C 1,4 km/h (1 Bft)
10/12/2007 22:00 9,4 C 86 % 1004,8 hPa 0,0 l/m 0,6 km/h (0 Bft) NO 0,00 h 0,025 mm 0 W/m 7,2 C 9,4 C 1,5 km/h (1 Bft)
10/12/2007 23:00 8,6 C 87 % 1005,7 hPa 0,0 l/m 3,7 km/h (1 Bft) NO 0,00 h 0,025 mm 0 W/m 6,5 C 8,3 C 5,0 km/h (1 Bft)
11/12/2007 00:00 7,7 C 86 % 1006,4 hPa 0,0 l/m 2,1 km/h (1 Bft) O-NO 0,00 h 0,025 mm 0 W/m 5,5 C 7,6 C 2,9 km/h (1 Bft)
11/12/2007 01:00 7,9 C 85 % 1006,5 hPa 0,0 l/m 5,6 km/h (1 Bft) O 0,00 h 0,025 mm 0 W/m 5,6 C 7,3 C 7,4 km/h (2 Bft)
11/12/2007 02:00 7,0 C 80 % 1006,9 hPa 0,0 l/m 3,5 km/h (1 Bft) NO 0,00 h 0,025 mm 0 W/m 3,8 C 6,6 C 5,2 km/h (1 Bft)
11/12/2007 03:00 6,8 C 69 % 1007,2 hPa 0,0 l/m 1,6 km/h (1 Bft) NO 0,00 h 0,025 mm 0 W/m 1,4 C 6,8 C 2,8 km/h (1 Bft)
11/12/2007 04:00 7,3 C 52 % 1007,3 hPa 0,0 l/m 3,4 km/h (1 Bft) NO 0,00 h 0,025 mm 0 W/m -2,0 C 7,1 C 5,2 km/h (1 Bft)
11/12/2007 05:00 7,7 C 49 % 1007,8 hPa 0,0 l/m 1,8 km/h (1 Bft) SO 0,00 h 0,051 mm 0 W/m -2,3 C 7,6 C 2,6 km/h (1 Bft)
11/12/2007 06:00 7,3 C 48 % 1008,4 hPa 0,0 l/m 1,1 km/h (1 Bft) O-SO 0,00 h 0,051 mm 0 W/m -2,9 C 7,3 C 2,0 km/h (1 Bft)
11/12/2007 07:00 6,9 C 46 % 1009,2 hPa 0,0 l/m 2,6 km/h (1 Bft) NO 0,00 h 0,051 mm 6 W/m -4,0 C 6,7 C 4,3 km/h (1 Bft)
11/12/2007 08:00 8,2 C 41 % 1009,9 hPa 0,0 l/m 4,1 km/h (1 Bft) O-NO 0,90 h 0,025 mm 61 W/m -4,3 C 7,9 C 5,5 km/h (1 Bft)
11/12/2007 09:00 10,9 C 38 % 1010,5 hPa 0,0 l/m 1,3 km/h (1 Bft) O-NO 1,00 h 0,051 mm 187 W/m -3,0 C 10,9 C 2,0 km/h (1 Bft)
11/12/2007 10:00 12,7 C 39 % 1011,1 hPa 0,0 l/m 0,7 km/h (0 Bft) O-SO 1,00 h 0,102 mm 293 W/m -0,8 C 12,7 C 1,5 km/h (1 Bft)
11/12/2007 11:00 14,3 C 36 % 1011,3 hPa 0,0 l/m 1,8 km/h (1 Bft) S 1,00 h 0,152 mm 358 W/m -0,6 C 14,3 C 3,5 km/h (1 Bft)
11/12/2007 12:00 14,8 C 32 % 1011,1 hPa 0,0 l/m 3,0 km/h (1 Bft) S-SE 1,00 h 0,203 mm 376 W/m -1,6 C 14,8 C 5,4 km/h (1 Bft)
11/12/2007 13:00 15,2 C 35 % 1010,8 hPa 0,0 l/m 2,8 km/h (1 Bft) SE 1,00 h 0,229 mm 339 W/m -0,1 C 15,2 C 4,8 km/h (1 Bft)
11/12/2007 14:00 15,2 C 36 % 1010,7 hPa 0,0 l/m 2,0 km/h (1 Bft) SE 1,00 h 0,203 mm 261 W/m 0,2 C 15,2 C 3,9 km/h (1 Bft)
11/12/2007 15:00 14,2 C 41 % 1010,7 hPa 0,0 l/m 3,4 km/h (1 Bft) S-SE 1,00 h 0,152 mm 153 W/m 1,1 C 14,2 C 5,4 km/h (1 Bft)
11/12/2007 16:00 12,7 C 51 % 1010,9 hPa 0,0 l/m 1,2 km/h (1 Bft) S 0,73 h 0,102 mm 37 W/m 2,8 C 12,7 C 2,3 km/h (1 Bft)
11/12/2007 17:00 9,4 C 60 % 1011,5 hPa 0,0 l/m 3,0 km/h (1 Bft) E-NE 0,00 h 0,025 mm 0 W/m 2,0 C 9,4 C 4,8 km/h (1 Bft)
11/12/2007 18:00 8,3 C 62 % 1012,0 hPa 0,0 l/m 4,3 km/h (1 Bft) N 0,00 h 0,025 mm 0 W/m 1,5 C 7,9 C 7,0 km/h (2 Bft)
11/12/2007 19:00 8,9 C 64 % 1012,2 hPa 0,0 l/m 5,6 km/h (1 Bft) N-NE 0,00 h 0,051 mm 0 W/m 2,4 C 8,3 C 8,2 km/h (2 Bft)
11/12/2007 20:00 9,4 C 61 % 1012,8 hPa 0,0 l/m 6,1 km/h (2 Bft) N-NE 0,00 h 0,051 mm 0 W/m 2,2 C 8,8 C 9,0 km/h (2 Bft)
11/12/2007 21:00 10,3 C 48 % 1013,3 hPa 0,0 l/m 3,9 km/h (1 Bft) N 0,00 h 0,051 mm 0 W/m -0,4 C 10,2 C 6,3 km/h (2 Bft)
11/12/2007 22:00 10,9 C 41 % 1013,6 hPa 0,0 l/m 7,7 km/h (2 Bft) O-NO 0,00 h 0,051 mm 0 W/m -1,9 C 10,9 C 10,2 km/h (2 Bft)
11/12/2007 23:00 10,2 C 40 % 1014,1 hPa 0,0 l/m 8,1 km/h (2 Bft) O-NO 0,00 h 0,076 mm 0 W/m -2,6 C 9,9 C 11,1 km/h (2 Bft)
12/12/2007 00:00 8,8 C 42 % 1014,5 hPa 0,0 l/m 2,0 km/h (1 Bft) N 0,00 h 0,076 mm 0 W/m -3,4 C 8,8 C 4,1 km/h (1 Bft)
12/12/2007 01:00 8,5 C 40 % 1014,8 hPa 0,0 l/m 4,8 km/h (1 Bft) NE 0,00 h 0,051 mm 0 W/m -4,3 C 8,0 C 7,0 km/h (2 Bft)
12/12/2007 02:00 9,1 C 34 % 1015,3 hPa 0,0 l/m 4,9 km/h (1 Bft) N-NO 0,00 h 0,051 mm 0 W/m -6,0 C 8,6 C 7,7 km/h (2 Bft)
12/12/2007 03:00 9,0 C 32 % 1015,6 hPa 0,0 l/m 4,7 km/h (1 Bft) N 0,00 h 0,076 mm 0 W/m -6,9 C 8,6 C 8,9 km/h (2 Bft)
12/12/2007 04:00 8,5 C 33 % 1016,3 hPa 0,0 l/m 5,0 km/h (1 Bft) E-NE 0,00 h 0,076 mm 0 W/m -6,7 C 8,0 C 7,6 km/h (2 Bft)
12/12/2007 05:00 8,3 C 34 % 1017,0 hPa 0,0 l/m 5,6 km/h (1 Bft) N-NO 0,00 h 0,076 mm 0 W/m -6,7 C 7,7 C 9,7 km/h (2 Bft)
12/12/2007 06:00 9,2 C 29 % 1017,6 hPa 0,0 l/m 5,5 km/h (1 Bft) N-NO 0,00 h 0,076 mm 0 W/m -7,7 C 8,6 C 8,8 km/h (2 Bft)
12/12/2007 07:00 9,5 C 28 % 1018,3 hPa 0,0 l/m 5,3 km/h (1 Bft) NO 0,00 h 0,076 mm 6 W/m -8,0 C 8,8 C 7,9 km/h (2 Bft)
12/12/2007 08:00 10,2 C 28 % 1018,9 hPa 0,0 l/m 2,4 km/h (1 Bft) N-NO 0,88 h 0,051 mm 59 W/m -7,7 C 10,2 C 4,9 km/h (1 Bft)
12/12/2007 09:00 12,7 C 26 % 1019,5 hPa 0,0 l/m 3,7 km/h (1 Bft) O-NO 1,00 h 0,051 mm 184 W/m -6,1 C 12,7 C 6,0 km/h (2 Bft)
12/12/2007 10:00 12,4 C 32 % 1020,2 hPa 0,0 l/m 4,5 km/h (1 Bft) SE 1,00 h 0,127 mm 289 W/m -3,7 C 12,4 C 6,6 km/h (2 Bft)
12/12/2007 11:00 12,8 C 35 % 1020,6 hPa 0,0 l/m 8,9 km/h (2 Bft) S 1,00 h 0,178 mm 350 W/m -2,4 C 12,8 C 12,3 km/h (3 Bft)
12/12/2007 12:00 13,9 C 38 % 1020,6 hPa 0,0 l/m 8,6 km/h (2 Bft) S 1,00 h 0,254 mm 371 W/m -0,3 C 13,9 C 12,2 km/h (2 Bft)
12/12/2007 13:00 14,4 C 36 % 1020,4 hPa 0,0 l/m 11,8 km/h (2 Bft) S-SO 1,00 h 0,254 mm 344 W/m -0,6 C 14,4 C 16,0 km/h (3 Bft)
12/12/2007 14:00 14,4 C 29 % 1020,3 hPa 0,0 l/m 10,5 km/h (2 Bft) SO 1,00 h 0,279 mm 268 W/m -3,6 C 14,4 C 14,4 km/h (3 Bft)
12/12/2007 15:00 14,3 C 28 % 1020,5 hPa 0,0 l/m 6,2 km/h (2 Bft) S 1,00 h 0,229 mm 156 W/m -4,0 C 14,3 C 8,4 km/h (2 Bft)
12/12/2007 16:00 12,7 C 36 % 1020,6 hPa 0,0 l/m 9,6 km/h (2 Bft) O-SO 0,73 h 0,152 mm 38 W/m -2,2 C 12,7 C 12,5 km/h (3 Bft)
12/12/2007 17:00 10,0 C 47 % 1020,8 hPa 0,0 l/m 9,2 km/h (2 Bft) O-NO 0,00 h 0,102 mm 0 W/m -0,9 C 9,4 C 13,1 km/h (3 Bft)
12/12/2007 18:00 8,6 C 47 % 1021,5 hPa 0,0 l/m 2,2 km/h (1 Bft) NO 0,00 h 0,051 mm 0 W/m -2,2 C 8,5 C 3,9 km/h (1 Bft)
12/12/2007 19:00 8,2 C 43 % 1021,8 hPa 0,0 l/m 4,9 km/h (1 Bft) O-NO 0,00 h 0,051 mm 0 W/m -3,6 C 7,7 C 7,3 km/h (2 Bft)
12/12/2007 20:00 7,8 C 40 % 1022,1 hPa 0,0 l/m 4,8 km/h (1 Bft) O-NO 0,00 h 0,051 mm 0 W/m -4,8 C 7,3 C 7,5 km/h (2 Bft)
12/12/2007 21:00 7,6 C 37 % 1022,3 hPa 0,0 l/m 5,5 km/h (1 Bft) NO 0,00 h 0,051 mm 0 W/m -6,2 C 6,9 C 8,2 km/h (2 Bft)
12/12/2007 22:00 7,8 C 33 % 1022,6 hPa 0,0 l/m 5,2 km/h (1 Bft) O-NO 0,00 h 0,076 mm 0 W/m -7,6 C 7,2 C 7,7 km/h (2 Bft)
12/12/2007 23:00 7,8 C 30 % 1022,7 hPa 0,0 l/m 5,0 km/h (1 Bft) NO 0,00 h 0,076 mm 0 W/m -8,5 C 7,3 C 7,1 km/h (2 Bft)
13/12/2007 00:00 7,7 C 30 % 1022,8 hPa 0,0 l/m 4,9 km/h (1 Bft) NO 0,00 h 0,076 mm 0 W/m -8,8 C 7,2 C 7,6 km/h (2 Bft)
13/12/2007 01:00 8,0 C 29 % 1022,7 hPa 0,0 l/m 6,3 km/h (2 Bft) N-NO 0,00 h 0,076 mm 0 W/m -8,8 C 7,1 C 9,0 km/h (2 Bft)
13/12/2007 02:00 7,9 C 29 % 1023,0 hPa 0,0 l/m 4,6 km/h (1 Bft) N-NO 0,00 h 0,076 mm 0 W/m -9,2 C 7,5 C 6,5 km/h (2 Bft)
13/12/2007 03:00 7,7 C 29 % 1023,2 hPa 0,0 l/m 5,4 km/h (1 Bft) NO 0,00 h 0,076 mm 0 W/m -9,4 C 7,1 C 7,1 km/h (2 Bft)
13/12/2007 04:00 7,7 C 29 % 1023,2 hPa 0,0 l/m 5,5 km/h (1 Bft) O-NO 0,00 h 0,076 mm 0 W/m -9,3 C 7,0 C 8,2 km/h (2 Bft)
13/12/2007 05:00 7,6 C 29 % 1023,2 hPa 0,0 l/m 4,4 km/h (1 Bft) NO 0,00 h 0,076 mm 0 W/m -9,3 C 7,1 C 6,5 km/h (2 Bft)
13/12/2007 06:00 7,4 C 29 % 1023,7 hPa 0,0 l/m 5,0 km/h (1 Bft) N-NO 0,00 h 0,076 mm 0 W/m -9,2 C 6,8 C 6,9 km/h (2 Bft)
13/12/2007 07:00 7,2 C 29 % 1024,1 hPa 0,0 l/m 4,9 km/h (1 Bft) NO 0,00 h 0,076 mm 6 W/m -9,4 C 6,7 C 6,5 km/h (2 Bft)
13/12/2007 08:00 8,3 C 29 % 1024,7 hPa 0,0 l/m 4,1 km/h (1 Bft) NO 0,75 h 0,051 mm 49 W/m -8,6 C 7,9 C 6,7 km/h (2 Bft)
13/12/2007 09:00 9,6 C 30 % 1025,3 hPa 0,0 l/m 4,4 km/h (1 Bft) NO 1,00 h 0,051 mm 182 W/m -7,3 C 9,3 C 6,0 km/h (2 Bft)
13/12/2007 10:00 12,9 C 32 % 1025,7 hPa 0,0 l/m 1,1 km/h (1 Bft) E-NE 1,00 h 0,127 mm 282 W/m -3,6 C 12,9 C 2,1 km/h (1 Bft)
13/12/2007 11:00 13,3 C 30 % 1026,2 hPa 0,0 l/m 4,4 km/h (1 Bft) E-NE 1,00 h 0,152 mm 351 W/m -3,8 C 13,3 C 6,6 km/h (2 Bft)
13/12/2007 12:00 14,3 C 30 % 1026,0 hPa 0,0 l/m 2,4 km/h (1 Bft) E-SE 1,00 h 0,229 mm 373 W/m -3,3 C 14,3 C 4,3 km/h (1 Bft)
13/12/2007 13:00 15,0 C 29 % 1025,8 hPa 0,0 l/m 2,3 km/h (1 Bft) SE 1,00 h 0,229 mm 340 W/m -2,7 C 15,0 C 4,6 km/h (1 Bft)
13/12/2007 14:00 15,2 C 29 % 1025,4 hPa 0,0 l/m 3,6 km/h (1 Bft) S-SO 1,00 h 0,203 mm 263 W/m -3,0 C 15,2 C 5,3 km/h (1 Bft)
13/12/2007 15:00 14,5 C 35 % 1025,5 hPa 0,0 l/m 6,9 km/h (2 Bft) S 1,00 h 0,178 mm 150 W/m -0,7 C 14,5 C 9,4 km/h (2 Bft)
13/12/2007 16:00 13,1 C 35 % 1025,8 hPa 0,0 l/m 5,8 km/h (2 Bft) S-SO 0,73 h 0,152 mm 38 W/m -2,1 C 13,1 C 7,5 km/h (2 Bft)
13/12/2007 17:00 11,0 C 37 % 1026,1 hPa 0,0 l/m 6,3 km/h (2 Bft) O 0,00 h 0,076 mm 0 W/m -3,1 C 11,0 C 8,0 km/h (2 Bft)
13/12/2007 18:00 9,6 C 40 % 1026,6 hPa 0,0 l/m 11,4 km/h (2 Bft) O-NO 0,00 h 0,051 mm 0 W/m -3,4 C 8,1 C 14,5 km/h (3 Bft)
13/12/2007 19:00 9,1 C 37 % 1026,7 hPa 0,0 l/m 15,1 km/h (3 Bft) O-NO 0,00 h 0,102 mm 0 W/m -4,8 C 6,8 C 19,2 km/h (3 Bft)
13/12/2007 20:00 8,8 C 35 % 1026,5 hPa 0,0 l/m 13,6 km/h (3 Bft) O-NO 0,00 h 0,127 mm 0 W/m -5,7 C 6,7 C 18,2 km/h (3 Bft)
13/12/2007 21:00 8,5 C 34 % 1026,5 hPa 0,0 l/m 9,3 km/h (2 Bft) O-NO 0,00 h 0,102 mm 0 W/m -6,4 C 7,0 C 13,6 km/h (3 Bft)
13/12/2007 22:00 8,4 C 34 % 1026,1 hPa 0,0 l/m 5,8 km/h (1 Bft) NO 0,00 h 0,076 mm 0 W/m -6,6 C 7,7 C 8,3 km/h (2 Bft)
13/12/2007 23:00 7,8 C 36 % 1026,0 hPa 0,0 l/m 4,2 km/h (1 Bft) N-NO 0,00 h 0,076 mm 0 W/m -6,5 C 7,4 C 5,9 km/h (2 Bft)
14/12/2007 00:00 8,2 C 34 % 1025,7 hPa 0,0 l/m 5,2 km/h (1 Bft) O-NO 0,00 h 0,051 mm 0 W/m -6,8 C 7,6 C 6,8 km/h (2 Bft)
14/12/2007 01:00 7,5 C 35 % 1025,1 hPa 0,0 l/m 4,2 km/h (1 Bft) NO 0,00 h 0,076 mm 0 W/m -6,9 C 7,2 C 6,5 km/h (2 Bft)
14/12/2007 02:00 7,7 C 35 % 1024,7 hPa 0,0 l/m 4,9 km/h (1 Bft) O-NO 0,00 h 0,051 mm 0 W/m -6,9 C 7,1 C 7,0 km/h (2 Bft)
14/12/2007 03:00 7,2 C 36 % 1024,0 hPa 0,0 l/m 3,8 km/h (1 Bft) N-NO 0,00 h 0,076 mm 0 W/m -6,8 C 6,7 C 5,6 km/h (1 Bft)
14/12/2007 04:00 7,2 C 35 % 1023,5 hPa 0,0 l/m 2,6 km/h (1 Bft) N-NO 0,00 h 0,051 mm 0 W/m -7,0 C 7,0 C 3,9 km/h (1 Bft)
14/12/2007 05:00 7,5 C 35 % 1023,0 hPa 0,0 l/m 5,3 km/h (1 Bft) O-NO 0,00 h 0,051 mm 0 W/m -7,1 C 6,8 C 7,4 km/h (2 Bft)
14/12/2007 06:00 6,7 C 37 % 1022,3 hPa 0,0 l/m 3,5 km/h (1 Bft) N-NO 0,00 h 0,076 mm 0 W/m -7,1 C 6,4 C 5,1 km/h (1 Bft)
14/12/2007 07:00 6,5 C 36 % 1021,9 hPa 0,0 l/m 1,2 km/h (1 Bft) N-NO 0,00 h 0,051 mm 10 W/m -7,4 C 6,5 C 2,0 km/h (1 Bft)
14/12/2007 08:00 7,5 C 36 % 1021,9 hPa 0,0 l/m 4,9 km/h (1 Bft) O-SO 0,60 h 0,025 mm 54 W/m -6,8 C 6,9 C 6,2 km/h (2 Bft)
14/12/2007 09:00 9,2 C 35 % 1021,8 hPa 0,0 l/m 3,2 km/h (1 Bft) O-NO 0,47 h 0,051 mm 156 W/m -5,3 C 9,0 C 4,8 km/h (1 Bft)
14/12/2007 10:00 10,0 C 38 % 1022,1 hPa 0,0 l/m 3,9 km/h (1 Bft) NE 0,83 h 0,102 mm 262 W/m -3,8 C 9,8 C 6,2 km/h (2 Bft)
14/12/2007 11:00 12,1 C 40 % 1021,8 hPa 0,0 l/m 6,5 km/h (2 Bft) NE 1,00 h 0,152 mm 353 W/m -1,1 C 12,1 C 10,1 km/h (2 Bft)
14/12/2007 12:00 13,2 C 52 % 1020,9 hPa 0,0 l/m 7,9 km/h (2 Bft) NE 1,00 h 0,229 mm 369 W/m 3,5 C 13,2 C 11,9 km/h (2 Bft)
14/12/2007 13:00 13,8 C 61 % 1020,0 hPa 0,0 l/m 9,4 km/h (2 Bft) E 0,90 h 0,229 mm 312 W/m 6,4 C 13,8 C 13,9 km/h (3 Bft)
14/12/2007 14:00 13,0 C 68 % 1019,7 hPa 0,0 l/m 12,6 km/h (3 Bft) E 0,43 h 0,203 mm 184 W/m 7,1 C 13,0 C 17,8 km/h (3 Bft)
14/12/2007 15:00 12,1 C 65 % 1019,9 hPa 0,0 l/m 18,7 km/h (3 Bft) E 1,00 h 0,152 mm 152 W/m 5,8 C 12,1 C 25,4 km/h (4 Bft)
14/12/2007 16:00 10,7 C 58 % 1020,0 hPa 0,0 l/m 13,5 km/h (3 Bft) E-NE 0,60 h 0,152 mm 35 W/m 2,8 C 10,4 C 19,1 km/h (3 Bft)
14/12/2007 17:00 9,5 C 58 % 1020,2 hPa 0,0 l/m 8,3 km/h (2 Bft) NE 0,00 h 0,076 mm 0 W/m 1,6 C 8,4 C 12,8 km/h (3 Bft)
14/12/2007 18:00 9,3 C 59 % 1020,5 hPa 0,0 l/m 7,1 km/h (2 Bft) N-NE 0,00 h 0,051 mm 0 W/m 1,6 C 8,4 C 11,6 km/h (2 Bft)
14/12/2007 19:00 8,6 C 64 % 1020,9 hPa 0,0 l/m 5,5 km/h (1 Bft) NE 0,00 h 0,051 mm 0 W/m 2,3 C 8,0 C 8,2 km/h (2 Bft)
14/12/2007 20:00 8,1 C 66 % 1021,0 hPa 0,0 l/m 5,7 km/h (1 Bft) NE 0,00 h 0,051 mm 0 W/m 2,2 C 7,4 C 8,4 km/h (2 Bft)
14/12/2007 21:00 7,9 C 68 % 1021,2 hPa 0,0 l/m 2,7 km/h (1 Bft) NE 0,00 h 0,051 mm 0 W/m 2,3 C 7,8 C 5,3 km/h (1 Bft)
14/12/2007 22:00 6,9 C 66 % 1020,9 hPa 0,0 l/m 3,0 km/h (1 Bft) N 0,00 h 0,025 mm 0 W/m 1,0 C 6,7 C 5,3 km/h (1 Bft)
14/12/2007 23:00 6,2 C 68 % 1020,5 hPa 0,0 l/m 3,9 km/h (1 Bft) N 0,00 h 0,025 mm 0 W/m 0,8 C 5,8 C 6,8 km/h (2 Bft)
15/12/2007 00:00 5,7 C 71 % 1020,1 hPa 0,0 l/m 3,0 km/h (1 Bft) N 0,00 h 0,025 mm 0 W/m 0,9 C 5,4 C 5,6 km/h (1 Bft)
15/12/2007 01:00 5,7 C 75 % 1019,5 hPa 0,0 l/m 3,7 km/h (1 Bft) N 0,00 h 0,025 mm 0 W/m 1,7 C 5,4 C 6,6 km/h (2 Bft)
15/12/2007 02:00 5,7 C 77 % 1019,0 hPa 0,0 l/m 3,8 km/h (1 Bft) N 0,00 h 0,025 mm 0 W/m 1,9 C 5,4 C 6,5 km/h (2 Bft)
15/12/2007 03:00 6,2 C 77 % 1018,7 hPa 0,0 l/m 5,7 km/h (1 Bft) N 0,00 h 0,025 mm 0 W/m 2,4 C 5,2 C 9,0 km/h (2 Bft)
15/12/2007 04:00 6,9 C 73 % 1018,3 hPa 0,0 l/m 7,6 km/h (2 Bft) N-NE 0,00 h 0,025 mm 0 W/m 2,4 C 5,5 C 12,2 km/h (2 Bft)
15/12/2007 05:00 7,6 C 69 % 1018,5 hPa 0,0 l/m 10,5 km/h (2 Bft) NE 0,00 h 0,025 mm 0 W/m 2,3 C 5,7 C 15,9 km/h (3 Bft)
15/12/2007 06:00 6,7 C 77 % 1019,2 hPa 0,0 l/m 26,4 km/h (4 Bft) E-NE 0,00 h 0,051 mm 0 W/m 2,8 C 2,6 C 35,9 km/h (5 Bft)
15/12/2007 07:00 4,8 C 87 % 1020,8 hPa 1,4 l/m 18,1 km/h (3 Bft) NE 0,00 h 0,076 mm 0 W/m 2,8 C 1,1 C 26,1 km/h (4 Bft)
15/12/2007 08:00 4,1 C 91 % 1021,5 hPa 0,2 l/m 17,1 km/h (3 Bft) NE 0,00 h 0,025 mm 9 W/m 2,8 C 0,4 C 24,7 km/h (4 Bft)
15/12/2007 09:00 4,2 C 91 % 1022,4 hPa 0,0 l/m 22,8 km/h (4 Bft) E-NE 0,00 h 0,025 mm 29 W/m 2,9 C -0,2 C 32,1 km/h (5 Bft)
15/12/2007 10:00 4,0 C 89 % 1023,5 hPa 0,2 l/m 22,4 km/h (4 Bft) NE 0,00 h 0,051 mm 56 W/m 2,3 C -0,4 C 32,0 km/h (5 Bft)
15/12/2007 11:00 3,9 C 88 % 1023,8 hPa 0,6 l/m 18,9 km/h (3 Bft) NE 0,00 h 0,051 mm 49 W/m 2,1 C 0,0 C 26,5 km/h (4 Bft)
15/12/2007 12:00 4,0 C 91 % 1023,3 hPa 0,0 l/m 7,2 km/h (2 Bft) NE 0,00 h 0,051 mm 87 W/m 2,7 C 2,4 C 11,4 km/h (2 Bft)
15/12/2007 13:00 4,5 C 90 % 1022,5 hPa 0,0 l/m 5,2 km/h (1 Bft) N-NE 0,13 h 0,051 mm 124 W/m 3,0 C 3,5 C 8,5 km/h (2 Bft)
15/12/2007 14:00 5,3 C 80 % 1021,8 hPa 0,0 l/m 7,0 km/h (2 Bft) NO 0,38 h 0,051 mm 140 W/m 2,2 C 3,8 C 10,5 km/h (2 Bft)
15/12/2007 15:00 6,6 C 68 % 1021,4 hPa 0,0 l/m 5,4 km/h (1 Bft) N-NO 1,00 h 0,076 mm 150 W/m 1,1 C 5,8 C 8,2 km/h (2 Bft)
15/12/2007 16:00 6,4 C 64 % 1021,5 hPa 0,0 l/m 4,1 km/h (1 Bft) S 0,60 h 0,076 mm 36 W/m 0,2 C 5,9 C 6,2 km/h (2 Bft)
15/12/2007 17:00 4,4 C 63 % 1021,8 hPa 0,0 l/m 7,9 km/h (2 Bft) N-NE 0,00 h 0,025 mm 0 W/m -2,1 C 2,5 C 12,8 km/h (3 Bft)
15/12/2007 18:00 3,2 C 57 % 1022,0 hPa 0,0 l/m 3,5 km/h (1 Bft) N 0,00 h 0,025 mm 0 W/m -4,4 C 2,6 C 6,2 km/h (2 Bft)
15/12/2007 19:00 2,6 C 52 % 1022,5 hPa 0,0 l/m 1,9 km/h (1 Bft) NE 0,00 h 0,025 mm 0 W/m -6,4 C 2,4 C 3,4 km/h (1 Bft)
15/12/2007 20:00 3,2 C 39 % 1022,8 hPa 0,0 l/m 2,2 km/h (1 Bft) NO 0,00 h 0,025 mm 0 W/m -9,3 C 2,9 C 3,4 km/h (1 Bft)
15/12/2007 21:00 3,1 C 41 % 1023,1 hPa 0,0 l/m 7,2 km/h (2 Bft) NO 0,00 h 0,051 mm 0 W/m -8,9 C 1,2 C 10,4 km/h (2 Bft)
15/12/2007 22:00 3,0 C 41 % 1023,3 hPa 0,0 l/m 5,6 km/h (1 Bft) NO 0,00 h 0,051 mm 0 W/m -8,9 C 1,6 C 8,1 km/h (2 Bft)
15/12/2007 23:00 2,8 C 42 % 1023,4 hPa 0,0 l/m 4,3 km/h (1 Bft) NO 0,00 h 0,051 mm 0 W/m -8,7 C 2,0 C 6,4 km/h (2 Bft)
16/12/2007 00:00 2,7 C 45 % 1023,5 hPa 0,0 l/m 3,9 km/h (1 Bft) NO 0,00 h 0,051 mm 0 W/m -8,1 C 1,9 C 5,9 km/h (2 Bft)
16/12/2007 01:00 2,6 C 47 % 1023,3 hPa 0,0 l/m 6,1 km/h (2 Bft) NO 0,00 h 0,051 mm 0 W/m -7,5 C 1,0 C 9,2 km/h (2 Bft)
16/12/2007 02:00 3,0 C 48 % 1023,3 hPa 0,0 l/m 6,8 km/h (2 Bft) NO 0,00 h 0,051 mm 0 W/m -7,0 C 1,3 C 9,8 km/h (2 Bft)
16/12/2007 03:00 3,2 C 47 % 1023,3 hPa 0,0 l/m 6,2 km/h (2 Bft) N-NO 0,00 h 0,051 mm 0 W/m -7,0 C 1,6 C 8,8 km/h (2 Bft)
16/12/2007 04:00 2,6 C 47 % 1022,9 hPa 0,0 l/m 6,7 km/h (2 Bft) O 0,00 h 0,051 mm 0 W/m -7,4 C 0,8 C 9,5 km/h (2 Bft)
16/12/2007 05:00 1,3 C 52 % 1023,1 hPa 0,0 l/m 2,8 km/h (1 Bft) E 0,00 h 0,051 mm 0 W/m -7,5 C 0,8 C 4,5 km/h (1 Bft)
16/12/2007 06:00 1,8 C 49 % 1023,2 hPa 0,0 l/m 7,2 km/h (2 Bft) O-NO 0,00 h 0,025 mm 0 W/m -7,8 C -0,4 C 10,6 km/h (2 Bft)
16/12/2007 07:00 2,7 C 45 % 1023,3 hPa 0,0 l/m 6,2 km/h (2 Bft) N-NO 0,00 h 0,051 mm 7 W/m -8,1 C 1,0 C 8,9 km/h (2 Bft)
16/12/2007 08:00 3,1 C 44 % 1023,6 hPa 0,0 l/m 4,4 km/h (1 Bft) NO 0,45 h 0,025 mm 42 W/m -8,1 C 2,2 C 6,6 km/h (2 Bft)
16/12/2007 09:00 5,3 C 39 % 1023,8 hPa 0,0 l/m 7,0 km/h (2 Bft) N-NE 0,90 h 0,051 mm 165 W/m -7,5 C 3,9 C 11,3 km/h (2 Bft)
16/12/2007 10:00 7,3 C 35 % 1023,8 hPa 0,0 l/m 9,8 km/h (2 Bft) NE 1,00 h 0,102 mm 276 W/m -7,0 C 5,6 C 15,0 km/h (3 Bft)
16/12/2007 11:00 8,7 C 36 % 1023,4 hPa 0,0 l/m 9,4 km/h (2 Bft) E 1,00 h 0,178 mm 342 W/m -5,7 C 7,2 C 13,9 km/h (3 Bft)
16/12/2007 12:00 9,0 C 37 % 1022,9 hPa 0,0 l/m 16,2 km/h (3 Bft) E-NE 1,00 h 0,229 mm 367 W/m -5,0 C 6,6 C 22,4 km/h (4 Bft)
16/12/2007 13:00 8,3 C 40 % 1022,3 hPa 0,0 l/m 21,0 km/h (4 Bft) E 0,67 h 0,279 mm 266 W/m -4,4 C 5,2 C 28,6 km/h (4 Bft)
16/12/2007 14:00 7,3 C 36 % 1022,0 hPa 0,0 l/m 14,3 km/h (3 Bft) NE 0,00 h 0,254 mm 94 W/m -6,8 C 4,7 C 20,7 km/h (4 Bft)
16/12/2007 15:00 6,9 C 35 % 1022,0 hPa 0,0 l/m 7,4 km/h (2 Bft) NE 0,00 h 0,127 mm 42 W/m -7,6 C 5,5 C 11,6 km/h (2 Bft)
16/12/2007 16:00 6,1 C 38 % 1022,3 hPa 0,0 l/m 6,4 km/h (2 Bft) N-NE 0,00 h 0,076 mm 14 W/m -7,3 C 5,0 C 10,4 km/h (2 Bft)
16/12/2007 17:00 6,1 C 35 % 1022,8 hPa 0,0 l/m 14,8 km/h (3 Bft) NE 0,00 h 0,051 mm 0 W/m -8,2 C 3,2 C 21,6 km/h (4 Bft)
16/12/2007 18:00 5,6 C 37 % 1022,9 hPa 0,0 l/m 9,7 km/h (2 Bft) NE 0,00 h 0,102 mm 0 W/m -7,9 C 3,6 C 15,2 km/h (3 Bft)
16/12/2007 19:00 5,5 C 36 % 1022,9 hPa 0,0 l/m 10,3 km/h (2 Bft) N-NE 0,00 h 0,076 mm 0 W/m -8,4 C 3,3 C 16,7 km/h (3 Bft)
16/12/2007 20:00 4,7 C 38 % 1022,8 hPa 0,0 l/m 9,8 km/h (2 Bft) N-NE 0,00 h 0,076 mm 0 W/m -8,2 C 2,4 C 16,4 km/h (3 Bft)
16/12/2007 21:00 3,5 C 46 % 1022,7 hPa 0,0 l/m 7,8 km/h (2 Bft) NE 0,00 h 0,076 mm 0 W/m -7,2 C 1,4 C 11,4 km/h (2 Bft)
16/12/2007 22:00 2,0 C 53 % 1022,9 hPa 0,0 l/m 5,8 km/h (2 Bft) N-NE 0,00 h 0,051 mm 0 W/m -6,6 C 0,5 C 8,6 km/h (2 Bft)
16/12/2007 23:00 1,9 C 55 % 1023,0 hPa 0,0 l/m 5,8 km/h (2 Bft) N-NE 0,00 h 0,051 mm 0 W/m -6,2 C 0,4 C 9,5 km/h (2 Bft)
Min-Date _ 16/12/07 13/12/07 10/12/07 - 10/12/07 - - - - 15/12/07 15/12/07 10/12/07
_ Min-Heure 05:42 12:54 03:45 - 11:29 - - - - 20:27 10:28 17:40
Minimum _ 0,9 C 22 % 998,5 hPa - 0,0 km/h (0 Bft) - - - - -10,3 C -1,8 C 0,0 km/h (0 Bft)
Max-Date _ 10/12/07 15/12/07 13/12/07 15/12/07 10/12/07 - 10/12/07 10/12/07 10/12/07 10/12/07 10/12/07 10/12/07
_ Max-Heure 12:43 12:33 18:45 07:11 03:54 - 08:05 11:00 11:30 14:34 12:43 03:54
Maximum _ 16,1 C 92 % 1026,7 hPa 1,4 l/m 46,7 km/h
SO (6 Bft)
- 0,02 h 0,356 mm 476 W/m 7,8 C 16,1 C 59,5 km/h
SO (7 Bft)
Moyenne _ 8,5 C 49 % 1017,5 hPa #2,4 l/m 7,7 km/h (2 Bft) NO #46:07 h #15,437 mm 177 W/m -2,4 C 7,7 C 11,1 km/h (2 Bft)
Roquefort les pins